createdAt,value
2018-09-21T00:00:34.891Z,0.00
2018-09-21T00:01:35.041Z,0.00
2018-09-21T00:02:35.193Z,0.00
2018-09-21T00:03:35.327Z,0.00
2018-09-21T00:04:35.463Z,0.00
2018-09-21T00:05:35.601Z,0.00
2018-09-21T00:06:35.752Z,0.00
2018-09-21T00:07:35.887Z,0.00
2018-09-21T00:08:36.032Z,0.00
2018-09-21T00:09:36.172Z,0.00
2018-09-21T00:10:36.312Z,0.00
2018-09-21T00:11:36.450Z,0.00
2018-09-21T00:12:36.585Z,0.00
2018-09-21T00:13:36.727Z,0.00
2018-09-21T00:14:36.910Z,0.00
2018-09-21T00:15:37.039Z,0.00
2018-09-21T00:16:37.175Z,0.00
2018-09-21T00:17:37.318Z,0.00
2018-09-21T00:18:37.459Z,0.00
2018-09-21T00:19:38.499Z,0.00
2018-09-21T00:20:37.734Z,0.00
2018-09-21T00:21:37.914Z,0.00
2018-09-21T00:22:38.060Z,0.00
2018-09-21T00:23:38.195Z,0.00
2018-09-21T00:24:38.333Z,0.00
2018-09-21T00:25:38.492Z,0.00
2018-09-21T00:26:38.626Z,0.00
2018-09-21T00:27:39.501Z,0.00
2018-09-21T00:28:38.988Z,0.00
2018-09-21T00:29:39.071Z,0.00
2018-09-21T00:30:39.212Z,0.00
2018-09-21T00:31:39.389Z,0.00
2018-09-21T00:32:39.520Z,0.00
2018-09-21T00:33:39.659Z,0.00
2018-09-21T00:34:40.532Z,0.00
2018-09-21T00:35:39.975Z,0.00
2018-09-21T00:36:40.105Z,0.00
2018-09-21T00:37:40.246Z,0.00
2018-09-21T00:38:40.390Z,0.00
2018-09-21T00:39:40.556Z,0.00
2018-09-21T00:40:40.692Z,0.00
2018-09-21T00:41:40.831Z,0.00
2018-09-21T00:42:40.969Z,0.00
2018-09-21T00:43:41.117Z,0.00
2018-09-21T00:44:41.260Z,0.00
2018-09-21T00:45:41.390Z,0.00
2018-09-21T00:46:42.046Z,0.00
2018-09-21T00:47:41.705Z,0.00
2018-09-21T00:48:41.847Z,0.00
2018-09-21T00:49:42.064Z,0.00
2018-09-21T00:50:42.084Z,0.00
2018-09-21T00:51:42.221Z,0.00
2018-09-21T00:52:42.360Z,0.00
2018-09-21T00:53:42.493Z,0.00
2018-09-21T00:54:42.635Z,0.00
2018-09-21T00:55:42.776Z,0.00
2018-09-21T00:56:42.917Z,0.00
2018-09-21T00:57:43.056Z,0.00
2018-09-21T00:58:43.197Z,0.00
2018-09-21T00:59:43.349Z,0.00
2018-09-21T01:00:43.484Z,0.00
2018-09-21T01:01:43.624Z,0.00
2018-09-21T01:02:43.761Z,0.00
2018-09-21T01:03:43.905Z,0.00
2018-09-21T01:04:44.058Z,0.00
2018-09-21T01:05:44.192Z,0.00
2018-09-21T01:06:44.327Z,0.00
2018-09-21T01:07:44.465Z,0.00
2018-09-21T01:08:44.620Z,0.00
2018-09-21T01:09:44.781Z,0.00
2018-09-21T01:10:44.919Z,0.00
2018-09-21T01:11:45.086Z,0.00
2018-09-21T01:12:45.282Z,0.00
2018-09-21T01:13:45.398Z,0.00
2018-09-21T01:14:45.541Z,0.00
2018-09-21T01:15:45.718Z,0.00
2018-09-21T01:16:45.852Z,0.00
2018-09-21T01:17:45.993Z,0.00
2018-09-21T01:18:46.138Z,0.00
2018-09-21T01:19:46.285Z,0.00
2018-09-21T01:20:46.420Z,0.00
2018-09-21T01:21:46.557Z,0.00
2018-09-21T01:22:46.697Z,0.00
2018-09-21T01:23:46.869Z,0.00
2018-09-21T01:24:47.008Z,0.00
2018-09-21T01:25:47.145Z,0.00
2018-09-21T01:26:47.292Z,0.00
2018-09-21T01:27:47.427Z,0.00
2018-09-21T01:28:47.565Z,0.00
2018-09-21T01:29:47.709Z,0.00
2018-09-21T01:30:47.868Z,0.00
2018-09-21T01:31:48.001Z,0.00
2018-09-21T01:32:48.213Z,0.00
2018-09-21T01:33:48.281Z,0.00
2018-09-21T01:34:48.432Z,0.00
2018-09-21T01:35:48.565Z,0.00
2018-09-21T01:36:48.705Z,0.00
2018-09-21T01:37:48.844Z,0.00
2018-09-21T01:38:48.996Z,0.00
2018-09-21T01:39:49.172Z,0.00
2018-09-21T01:40:49.283Z,0.00
2018-09-21T01:41:49.415Z,0.00
2018-09-21T01:42:49.562Z,0.00
2018-09-21T01:43:49.692Z,0.00
2018-09-21T01:44:49.834Z,0.00
2018-09-21T01:45:49.984Z,0.00
2018-09-21T01:46:50.126Z,0.00
2018-09-21T01:47:50.261Z,0.00
2018-09-21T01:48:50.405Z,0.00
2018-09-21T01:49:50.541Z,0.00
2018-09-21T01:50:50.683Z,0.00
2018-09-21T01:51:50.827Z,0.00
2018-09-21T01:52:50.962Z,0.00
2018-09-21T01:53:51.098Z,0.00
2018-09-21T01:54:51.250Z,0.00
2018-09-21T01:55:51.388Z,0.00
2018-09-21T01:56:51.532Z,0.00
2018-09-21T01:57:51.710Z,0.00
2018-09-21T01:58:51.847Z,0.00
2018-09-21T01:59:52.006Z,0.00
2018-09-21T02:00:52.685Z,0.00
2018-09-21T02:01:52.238Z,0.00
2018-09-21T02:02:52.457Z,0.00
2018-09-21T02:03:52.471Z,0.00
2018-09-21T02:04:52.610Z,0.00
2018-09-21T02:05:52.754Z,0.00
2018-09-21T02:06:52.892Z,0.00
2018-09-21T02:07:53.040Z,0.00
2018-09-21T02:08:53.188Z,0.00
2018-09-21T02:09:53.324Z,0.00
2018-09-21T02:10:53.462Z,0.00
2018-09-21T02:11:53.591Z,0.00
2018-09-21T02:12:53.759Z,0.00
2018-09-21T02:13:53.897Z,0.00
2018-09-21T02:14:54.033Z,0.00
2018-09-21T02:15:54.190Z,0.00
2018-09-21T02:16:54.312Z,0.00
2018-09-21T02:17:54.478Z,0.00
2018-09-21T02:18:54.600Z,0.00
2018-09-21T02:19:54.741Z,0.00
2018-09-21T02:20:54.921Z,0.00
2018-09-21T02:21:55.026Z,0.00
2018-09-21T02:22:55.168Z,0.00
2018-09-21T02:23:55.303Z,0.00
2018-09-21T02:24:55.447Z,0.00
2018-09-21T02:25:55.582Z,0.00
2018-09-21T02:26:55.726Z,0.00
2018-09-21T02:27:55.865Z,0.00
2018-09-21T02:28:56.001Z,0.00
2018-09-21T02:29:56.144Z,0.00
2018-09-21T02:30:56.286Z,0.00
2018-09-21T02:31:56.481Z,0.00
2018-09-21T02:32:56.573Z,0.00
2018-09-21T02:33:56.707Z,0.00
2018-09-21T02:34:56.842Z,0.00
2018-09-21T02:35:56.982Z,0.00
2018-09-21T02:36:57.118Z,0.00
2018-09-21T02:37:57.253Z,0.00
2018-09-21T02:38:57.396Z,0.00
2018-09-21T02:39:57.534Z,0.00
2018-09-21T02:40:57.677Z,0.00
2018-09-21T02:41:57.815Z,0.00
2018-09-21T02:42:57.954Z,0.00
2018-09-21T02:43:58.094Z,0.00
2018-09-21T02:44:58.249Z,0.00
2018-09-21T02:45:58.391Z,0.00
2018-09-21T02:46:58.527Z,0.00
2018-09-21T02:47:58.670Z,0.00
2018-09-21T02:48:58.816Z,0.00
2018-09-21T02:49:58.978Z,0.00
2018-09-21T02:50:59.116Z,0.00
2018-09-21T02:51:59.256Z,0.00
2018-09-21T02:52:59.388Z,0.00
2018-09-21T02:53:59.531Z,0.00
2018-09-21T02:54:59.665Z,0.00
2018-09-21T02:55:59.806Z,0.00
2018-09-21T02:56:59.969Z,0.00
2018-09-21T02:58:00.106Z,0.00
2018-09-21T02:59:00.244Z,0.00
2018-09-21T03:00:00.397Z,0.00
2018-09-21T03:01:00.560Z,0.00
2018-09-21T03:02:00.672Z,0.00
2018-09-21T03:03:00.812Z,0.00
2018-09-21T03:04:00.976Z,0.00
2018-09-21T03:05:01.115Z,0.00
2018-09-21T03:06:01.239Z,0.00
2018-09-21T03:07:01.384Z,0.00
2018-09-21T03:08:01.551Z,0.00
2018-09-21T03:09:01.687Z,0.00
2018-09-21T03:10:01.832Z,0.00
2018-09-21T03:11:01.972Z,0.00
2018-09-21T03:12:02.142Z,0.00
2018-09-21T03:13:02.274Z,0.00
2018-09-21T03:14:02.387Z,0.00
2018-09-21T03:15:02.529Z,0.00
2018-09-21T03:16:02.679Z,0.00
2018-09-21T03:17:02.819Z,0.00
2018-09-21T03:18:02.951Z,0.00
2018-09-21T03:19:03.086Z,0.00
2018-09-21T03:20:03.239Z,0.00
2018-09-21T03:21:03.374Z,0.00
2018-09-21T03:22:03.514Z,0.00
2018-09-21T03:23:03.655Z,0.00
2018-09-21T03:24:03.798Z,0.00
2018-09-21T03:25:03.936Z,0.00
2018-09-21T03:26:04.088Z,0.00
2018-09-21T03:27:04.228Z,0.00
2018-09-21T03:28:04.365Z,0.00
2018-09-21T03:29:04.541Z,0.00
2018-09-21T03:30:04.652Z,0.00
2018-09-21T03:31:04.786Z,0.00
2018-09-21T03:32:04.928Z,0.00
2018-09-21T03:33:05.070Z,0.00
2018-09-21T03:34:05.206Z,0.00
2018-09-21T03:35:05.368Z,0.00
2018-09-21T03:36:05.490Z,0.00
2018-09-21T03:37:05.635Z,0.00
2018-09-21T03:38:05.788Z,0.00
2018-09-21T03:39:05.920Z,0.00
2018-09-21T03:40:06.065Z,0.00
2018-09-21T03:41:06.238Z,0.00
2018-09-21T03:42:06.360Z,0.00
2018-09-21T03:43:06.503Z,0.00
2018-09-21T03:44:06.664Z,0.00
2018-09-21T03:45:06.795Z,0.00
2018-09-21T03:46:06.938Z,0.00
2018-09-21T03:47:07.083Z,0.00
2018-09-21T03:48:07.220Z,0.00
2018-09-21T03:49:07.357Z,0.00
2018-09-21T03:50:07.515Z,0.00
2018-09-21T03:51:07.653Z,0.00
2018-09-21T03:52:07.786Z,0.00
2018-09-21T03:53:07.925Z,0.00
2018-09-21T03:54:08.067Z,0.00
2018-09-21T03:55:08.194Z,0.00
2018-09-21T03:56:08.331Z,0.00
2018-09-21T03:57:08.475Z,0.00
2018-09-21T03:58:08.631Z,0.00
2018-09-21T03:59:08.765Z,0.00
2018-09-21T04:00:08.904Z,0.00
2018-09-21T04:01:09.080Z,0.00
2018-09-21T04:02:09.186Z,0.00
2018-09-21T04:03:09.323Z,0.00
2018-09-21T04:04:09.470Z,0.00
2018-09-21T04:05:09.621Z,0.00
2018-09-21T04:06:09.770Z,0.00
2018-09-21T04:07:09.921Z,0.00
2018-09-21T04:08:10.055Z,0.00
2018-09-21T04:09:10.196Z,0.00
2018-09-21T04:10:10.334Z,0.00
2018-09-21T04:11:10.469Z,0.00
2018-09-21T04:12:10.615Z,0.00
2018-09-21T04:13:10.747Z,0.00
2018-09-21T04:14:10.889Z,0.00
2018-09-21T04:15:11.036Z,0.00
2018-09-21T04:16:11.170Z,0.00
2018-09-21T04:17:11.317Z,0.00
2018-09-21T04:18:11.454Z,0.00
2018-09-21T04:19:11.595Z,0.00
2018-09-21T04:20:11.734Z,0.00
2018-09-21T04:21:11.873Z,0.00
2018-09-21T04:22:12.021Z,0.00
2018-09-21T04:23:12.389Z,0.00
2018-09-21T04:24:12.302Z,0.00
2018-09-21T04:25:12.445Z,0.00
2018-09-21T04:26:12.580Z,0.00
2018-09-21T04:27:12.719Z,0.00
2018-09-21T04:28:12.857Z,0.00
2018-09-21T04:29:12.996Z,0.00
2018-09-21T04:30:13.137Z,0.00
2018-09-21T04:31:13.267Z,0.00
2018-09-21T04:32:13.456Z,0.00
2018-09-21T04:33:13.574Z,0.00
2018-09-21T04:34:13.712Z,0.00
2018-09-21T04:35:13.846Z,0.00
2018-09-21T04:36:14.085Z,0.00
2018-09-21T04:37:14.940Z,0.00
2018-09-21T04:38:14.291Z,0.00
2018-09-21T04:39:14.446Z,0.00
2018-09-21T04:40:14.582Z,0.00
2018-09-21T04:41:14.719Z,0.00
2018-09-21T04:42:14.887Z,0.00
2018-09-21T04:43:15.020Z,4.00
2018-09-21T04:44:15.161Z,4.00
2018-09-21T04:45:15.320Z,0.00
2018-09-21T04:46:15.463Z,4.00
2018-09-21T04:47:15.602Z,4.00
2018-09-21T04:48:15.741Z,4.00
2018-09-21T04:49:15.923Z,4.00
2018-09-21T04:50:16.061Z,8.00
2018-09-21T04:51:16.203Z,8.00
2018-09-21T04:52:16.365Z,8.00
2018-09-21T04:53:16.519Z,8.00
2018-09-21T04:54:16.653Z,12.00
2018-09-21T04:55:16.790Z,16.00
2018-09-21T04:56:16.956Z,20.00
2018-09-21T04:57:17.089Z,20.00
2018-09-21T04:58:17.241Z,24.00
2018-09-21T04:59:17.375Z,28.00
2018-09-21T05:00:17.511Z,32.00
2018-09-21T05:01:17.651Z,36.00
2018-09-21T05:02:17.791Z,40.00
2018-09-21T05:03:17.922Z,44.00
2018-09-21T05:04:18.064Z,44.00
2018-09-21T05:05:18.204Z,48.00
2018-09-21T05:06:18.341Z,56.00
2018-09-21T05:07:18.482Z,56.00
2018-09-21T05:08:18.616Z,64.00
2018-09-21T05:09:18.759Z,72.00
2018-09-21T05:10:18.896Z,72.00
2018-09-21T05:11:19.037Z,80.00
2018-09-21T05:12:19.181Z,84.00
2018-09-21T05:13:19.319Z,88.00
2018-09-21T05:14:19.450Z,96.00
2018-09-21T05:15:19.591Z,104.00
2018-09-21T05:16:19.727Z,108.00
2018-09-21T05:17:19.866Z,116.00
2018-09-21T05:18:20.008Z,124.00
2018-09-21T05:19:20.157Z,132.00
2018-09-21T05:20:20.319Z,140.00
2018-09-21T05:21:20.445Z,148.00
2018-09-21T05:22:21.281Z,156.00
2018-09-21T05:23:20.702Z,164.00
2018-09-21T05:24:20.830Z,172.00
2018-09-21T05:25:20.966Z,176.00
2018-09-21T05:26:21.127Z,180.00
2018-09-21T05:27:21.268Z,184.00
2018-09-21T05:28:21.422Z,188.00
2018-09-21T05:29:21.551Z,192.00
2018-09-21T05:30:21.732Z,200.00
2018-09-21T05:31:21.872Z,208.00
2018-09-21T05:32:22.042Z,216.00
2018-09-21T05:33:22.172Z,224.00
2018-09-21T05:34:22.329Z,232.00
2018-09-21T05:35:22.454Z,236.00
2018-09-21T05:36:22.602Z,244.00
2018-09-21T05:37:23.614Z,256.00
2018-09-21T05:38:22.866Z,264.00
2018-09-21T05:39:23.033Z,272.00
2018-09-21T05:40:23.174Z,280.00
2018-09-21T05:41:23.316Z,288.00
2018-09-21T05:42:23.454Z,300.00
2018-09-21T05:43:23.604Z,312.00
2018-09-21T05:44:23.743Z,324.00
2018-09-21T05:45:23.908Z,340.00
2018-09-21T05:46:24.048Z,356.00
2018-09-21T05:47:24.187Z,372.00
2018-09-21T05:48:24.362Z,384.00
2018-09-21T05:49:24.499Z,400.00
2018-09-21T05:50:24.651Z,416.00
2018-09-21T05:51:24.775Z,432.00
2018-09-21T05:52:24.920Z,448.00
2018-09-21T05:53:25.063Z,468.00
2018-09-21T05:54:25.201Z,488.00
2018-09-21T05:55:25.337Z,508.00
2018-09-21T05:56:25.478Z,524.00
2018-09-21T05:57:25.639Z,552.00
2018-09-21T05:58:25.775Z,576.00
2018-09-21T05:59:25.912Z,600.00
2018-09-21T06:00:26.067Z,628.00
2018-09-21T06:01:26.211Z,652.00
2018-09-21T06:02:26.448Z,696.00
2018-09-21T06:03:26.490Z,728.00
2018-09-21T06:04:26.639Z,744.00
2018-09-21T06:05:26.769Z,756.00
2018-09-21T06:06:26.908Z,768.00
2018-09-21T06:07:27.051Z,792.00
2018-09-21T06:08:27.202Z,808.00
2018-09-21T06:09:28.075Z,824.00
2018-09-21T06:10:27.493Z,840.00
2018-09-21T06:11:27.634Z,844.00
2018-09-21T06:12:27.769Z,876.00
2018-09-21T06:13:27.969Z,876.00
2018-09-21T06:14:28.044Z,904.00
2018-09-21T06:15:28.192Z,924.00
2018-09-21T06:16:28.328Z,936.00
2018-09-21T06:17:28.473Z,948.00
2018-09-21T06:18:28.615Z,964.00
2018-09-21T06:19:28.763Z,992.00
2018-09-21T06:20:28.900Z,1012.00
2018-09-21T06:21:29.036Z,1036.00
2018-09-21T06:22:29.173Z,1052.00
2018-09-21T06:23:29.311Z,1080.00
2018-09-21T06:24:29.455Z,1104.00
2018-09-21T06:25:29.591Z,1108.00
2018-09-21T06:26:29.726Z,1132.00
2018-09-21T06:27:29.870Z,1144.00
2018-09-21T06:28:30.028Z,1160.00
2018-09-21T06:29:30.270Z,1172.00
2018-09-21T06:30:30.287Z,1192.00
2018-09-21T06:31:30.430Z,1208.00
2018-09-21T06:32:30.567Z,1228.00
2018-09-21T06:33:30.710Z,1228.00
2018-09-21T06:34:30.867Z,1248.00
2018-09-21T06:35:31.007Z,1260.00
2018-09-21T06:36:31.155Z,1280.00
2018-09-21T06:37:31.291Z,1312.00
2018-09-21T06:38:31.429Z,1336.00
2018-09-21T06:39:31.607Z,1372.00
2018-09-21T06:40:31.742Z,1404.00
2018-09-21T06:41:31.876Z,1448.00
2018-09-21T06:42:32.068Z,1480.00
2018-09-21T06:43:32.184Z,1528.00
2018-09-21T06:44:32.335Z,1556.00
2018-09-21T06:45:32.475Z,1592.00
2018-09-21T06:46:32.667Z,1624.00
2018-09-21T06:47:32.776Z,1684.00
2018-09-21T06:48:32.914Z,1740.00
2018-09-21T06:49:33.058Z,1804.00
2018-09-21T06:50:33.207Z,1860.00
2018-09-21T06:51:33.347Z,1928.00
2018-09-21T06:52:33.489Z,2000.00
2018-09-21T06:53:33.642Z,2068.00
2018-09-21T06:54:33.790Z,2124.00
2018-09-21T06:55:33.933Z,2180.00
2018-09-21T06:56:34.070Z,2228.00
2018-09-21T06:57:34.232Z,2288.00
2018-09-21T06:58:34.367Z,2332.00
2018-09-21T06:59:34.535Z,2360.00
2018-09-21T07:00:34.665Z,2408.00
2018-09-21T07:01:34.877Z,2460.00
2018-09-21T07:02:35.025Z,2460.00
2018-09-21T07:03:35.099Z,2500.00
2018-09-21T07:04:35.239Z,2428.00
2018-09-21T07:05:35.377Z,2448.00
2018-09-21T07:06:35.548Z,2428.00
2018-09-21T07:07:35.675Z,2372.00
2018-09-21T07:08:35.810Z,2304.00
2018-09-21T07:09:35.953Z,2276.00
2018-09-21T07:10:36.121Z,2276.00
2018-09-21T07:11:36.265Z,2248.00
2018-09-21T07:12:36.405Z,2176.00
2018-09-21T07:13:36.545Z,2236.00
2018-09-21T07:14:36.706Z,2116.00
2018-09-21T07:15:36.837Z,2096.00
2018-09-21T07:16:36.984Z,2088.00
2018-09-21T07:17:37.118Z,1972.00
2018-09-21T07:18:37.258Z,1924.00
2018-09-21T07:19:37.397Z,1944.00
2018-09-21T07:20:37.598Z,1832.00
2018-09-21T07:21:37.630Z,1668.00
2018-09-21T07:22:37.771Z,1576.00
2018-09-21T07:23:38.774Z,1508.00
2018-09-21T07:24:38.089Z,1484.00
2018-09-21T07:25:38.223Z,1372.00
2018-09-21T07:26:38.437Z,1336.00
2018-09-21T07:27:38.478Z,1268.00
2018-09-21T07:28:38.616Z,1252.00
2018-09-21T07:29:38.757Z,1308.00
2018-09-21T07:30:38.902Z,1336.00
2018-09-21T07:31:39.059Z,1340.00
2018-09-21T07:32:39.187Z,1376.00
2018-09-21T07:33:39.326Z,1440.00
2018-09-21T07:34:39.467Z,1540.00
2018-09-21T07:35:39.619Z,1668.00
2018-09-21T07:36:39.757Z,1792.00
2018-09-21T07:37:39.928Z,1924.00
2018-09-21T07:38:40.035Z,2060.00
2018-09-21T07:39:40.186Z,1444.00
2018-09-21T07:40:40.323Z,2372.00
2018-09-21T07:41:40.465Z,2572.00
2018-09-21T07:42:40.601Z,2724.00
2018-09-21T07:43:40.747Z,2776.00
2018-09-21T07:44:40.959Z,2788.00
2018-09-21T07:45:41.022Z,2888.00
2018-09-21T07:46:41.161Z,2948.00
2018-09-21T07:47:41.307Z,3056.00
2018-09-21T07:48:41.443Z,3076.00
2018-09-21T07:49:41.585Z,3136.00
2018-09-21T07:50:41.724Z,3196.00
2018-09-21T07:51:41.862Z,3228.00
2018-09-21T07:52:42.825Z,3128.00
2018-09-21T07:55:14.710Z,2940.00
2018-09-21T07:56:14.851Z,2784.00
2018-09-21T07:57:14.993Z,2888.00
2018-09-21T07:58:15.132Z,2804.00
2018-09-21T07:59:15.271Z,2740.00
2018-09-21T08:00:15.412Z,2572.00
2018-09-21T08:01:15.558Z,2260.00
2018-09-21T08:02:15.696Z,2084.00
2018-09-21T08:03:15.892Z,2044.00
2018-09-21T08:04:16.046Z,1952.00
2018-09-21T08:05:16.225Z,1700.00
2018-09-21T08:06:17.148Z,1432.00
2018-09-21T08:07:16.511Z,1312.00
2018-09-21T08:08:16.596Z,1512.00
2018-09-21T08:09:16.748Z,1532.00
2018-09-21T08:10:16.888Z,1544.00
2018-09-21T08:11:17.036Z,1496.00
2018-09-21T08:12:17.173Z,1504.00
2018-09-21T08:13:17.312Z,1480.00
2018-09-21T08:14:17.458Z,1484.00
2018-09-21T08:15:17.605Z,1496.00
2018-09-21T08:16:17.743Z,1520.00
2018-09-21T08:17:17.879Z,1572.00
2018-09-21T08:18:18.026Z,1616.00
2018-09-21T08:19:18.192Z,1604.00
2018-09-21T08:20:18.301Z,1628.00
2018-09-21T08:21:18.444Z,1672.00
2018-09-21T08:22:18.586Z,1668.00
2018-09-21T08:23:18.726Z,1640.00
2018-09-21T08:24:18.865Z,1708.00
2018-09-21T08:25:19.654Z,1732.00
2018-09-21T08:26:19.133Z,1740.00
2018-09-21T08:27:19.285Z,1764.00
2018-09-21T08:28:19.410Z,1748.00
2018-09-21T08:29:19.577Z,1740.00
2018-09-21T08:30:19.714Z,1704.00
2018-09-21T08:31:19.901Z,1696.00
2018-09-21T08:32:20.012Z,1736.00
2018-09-21T08:33:20.208Z,1772.00
2018-09-21T08:34:20.281Z,1872.00
2018-09-21T08:35:20.417Z,1868.00
2018-09-21T08:36:20.599Z,1932.00
2018-09-21T08:37:20.799Z,2028.00
2018-09-21T08:38:20.867Z,2172.00
2018-09-21T08:39:21.013Z,2264.00
2018-09-21T08:40:21.169Z,2416.00
2018-09-21T08:41:21.311Z,2320.00
2018-09-21T08:42:21.454Z,2424.00
2018-09-21T08:43:21.609Z,2452.00
2018-09-21T08:44:21.744Z,2416.00
2018-09-21T08:45:21.891Z,2396.00
2018-09-21T08:46:22.046Z,2448.00
2018-09-21T08:47:22.177Z,2392.00
2018-09-21T08:48:22.323Z,2408.00
2018-09-21T08:49:22.462Z,2440.00
2018-09-21T08:50:22.607Z,2432.00
2018-09-21T08:51:22.755Z,2688.00
2018-09-21T08:52:22.896Z,2536.00
2018-09-21T08:53:23.037Z,2540.00
2018-09-21T08:54:23.204Z,2552.00
2018-09-21T08:55:23.351Z,2520.00
2018-09-21T08:56:23.503Z,2520.00
2018-09-21T08:57:23.640Z,2472.00
2018-09-21T08:58:23.783Z,2468.00
2018-09-21T08:59:23.939Z,2516.00
2018-09-21T09:00:24.069Z,2400.00
2018-09-21T09:01:24.210Z,2328.00
2018-09-21T09:02:24.381Z,2288.00
2018-09-21T09:03:24.718Z,2320.00
2018-09-21T09:04:24.685Z,2304.00
2018-09-21T09:05:24.821Z,2204.00
2018-09-21T09:06:24.987Z,2168.00
2018-09-21T09:07:25.123Z,2068.00
2018-09-21T09:08:25.264Z,2076.00
2018-09-21T09:09:25.405Z,2080.00
2018-09-21T09:10:25.549Z,2020.00
2018-09-21T09:11:25.682Z,1992.00
2018-09-21T09:12:25.835Z,2040.00
2018-09-21T09:13:25.980Z,2040.00
2018-09-21T09:14:26.117Z,2100.00
2018-09-21T09:15:26.253Z,2160.00
2018-09-21T09:16:26.391Z,2332.00
2018-09-21T09:17:27.082Z,2532.00
2018-09-21T09:18:26.722Z,2760.00
2018-09-21T09:19:26.864Z,3028.00
2018-09-21T09:20:27.023Z,3260.00
2018-09-21T09:21:27.157Z,3256.00
2018-09-21T09:22:27.306Z,3512.00
2018-09-21T09:23:27.457Z,3084.00
2018-09-21T09:24:27.609Z,3108.00
2018-09-21T09:25:27.743Z,2988.00
2018-09-21T09:26:27.947Z,3020.00
2018-09-21T09:27:28.033Z,2892.00
2018-09-21T09:28:28.193Z,2916.00
2018-09-21T09:29:28.332Z,3012.00
2018-09-21T09:30:28.477Z,3132.00
2018-09-21T09:31:28.615Z,3172.00
2018-09-21T09:32:28.774Z,3064.00
2018-09-21T09:33:28.909Z,3072.00
2018-09-21T09:34:29.051Z,3124.00
2018-09-21T09:35:29.197Z,3052.00
2018-09-21T09:36:29.336Z,3136.00
2018-09-21T09:37:29.480Z,3172.00
2018-09-21T09:38:29.624Z,3360.00
2018-09-21T09:39:29.767Z,3600.00
2018-09-21T09:40:29.908Z,3644.00
2018-09-21T09:41:30.096Z,3600.00
2018-09-21T09:42:30.238Z,4008.00
2018-09-21T09:43:30.384Z,3876.00
2018-09-21T09:44:30.525Z,4112.00
2018-09-21T09:45:30.667Z,4168.00
2018-09-21T09:46:31.589Z,4516.00
2018-09-21T09:47:31.014Z,4880.00
2018-09-21T09:48:31.180Z,4640.00
2018-09-21T09:49:31.296Z,4708.00
2018-09-21T09:50:31.442Z,4852.00
2018-09-21T09:51:31.579Z,5000.00
2018-09-21T09:52:31.711Z,4736.00
2018-09-21T09:53:31.860Z,4812.00
2018-09-21T09:54:32.008Z,5136.00
2018-09-21T09:55:32.168Z,5024.00
2018-09-21T09:56:32.306Z,4784.00
2018-09-21T09:57:32.444Z,4992.00
2018-09-21T09:58:32.588Z,5044.00
2018-09-21T09:59:32.731Z,4824.00
2018-09-21T10:00:32.876Z,4680.00
2018-09-21T10:01:33.020Z,4884.00
2018-09-21T10:02:33.160Z,4796.00
2018-09-21T10:03:33.377Z,4980.00
2018-09-21T10:04:34.105Z,4620.00
2018-09-21T10:05:33.639Z,4512.00
2018-09-21T10:06:33.782Z,4100.00
2018-09-21T10:07:33.914Z,3712.00
2018-09-21T10:08:34.066Z,3268.00
2018-09-21T10:09:34.224Z,2932.00
2018-09-21T10:10:34.370Z,2832.00
2018-09-21T10:11:34.520Z,2768.00
2018-09-21T10:12:34.661Z,2680.00
2018-09-21T10:13:34.797Z,2672.00
2018-09-21T10:14:34.939Z,2680.00
2018-09-21T10:15:35.082Z,2596.00
2018-09-21T10:16:35.224Z,992.00
2018-09-21T10:17:35.368Z,1652.00
2018-09-21T10:18:35.507Z,2736.00
2018-09-21T10:19:35.654Z,1572.00
2018-09-21T10:20:35.832Z,2808.00
2018-09-21T10:21:35.957Z,2928.00
2018-09-21T10:22:36.105Z,3196.00
2018-09-21T10:23:36.253Z,3232.00
2018-09-21T10:24:36.444Z,3116.00
2018-09-21T10:25:36.552Z,3096.00
2018-09-21T10:26:36.697Z,2964.00
2018-09-21T10:27:36.928Z,3088.00
2018-09-21T10:28:37.095Z,3060.00
2018-09-21T10:29:37.149Z,3096.00
2018-09-21T10:30:37.273Z,3640.00
2018-09-21T10:31:37.411Z,3936.00
2018-09-21T10:32:37.577Z,5208.00
2018-09-21T10:33:37.844Z,4960.00
2018-09-21T10:34:37.880Z,5080.00
2018-09-21T10:35:38.047Z,5108.00
2018-09-21T10:36:38.089Z,5124.00
2018-09-21T10:37:38.241Z,5416.00
2018-09-21T10:38:38.461Z,5416.00
2018-09-21T10:39:38.575Z,4836.00
2018-09-21T10:40:38.685Z,3764.00
2018-09-21T10:41:38.826Z,3020.00
2018-09-21T10:42:39.030Z,2924.00
2018-09-21T10:43:39.092Z,3036.00
2018-09-21T10:44:39.238Z,2572.00
2018-09-21T10:45:39.380Z,2408.00
2018-09-21T10:46:39.525Z,2000.00
2018-09-21T10:47:39.688Z,2060.00
2018-09-21T10:48:39.819Z,1964.00
2018-09-21T10:49:39.980Z,2012.00
2018-09-21T10:50:40.118Z,1792.00
2018-09-21T10:51:40.261Z,1616.00
2018-09-21T10:52:40.480Z,1388.00
2018-09-21T10:53:40.569Z,1232.00
2018-09-21T10:54:40.710Z,1236.00
2018-09-21T10:55:40.870Z,1296.00
2018-09-21T10:56:41.008Z,1448.00
2018-09-21T10:57:41.180Z,1708.00
2018-09-21T10:58:41.381Z,1844.00
2018-09-21T10:59:41.472Z,1860.00
2018-09-21T11:00:41.617Z,2080.00
2018-09-21T11:01:41.782Z,2144.00
2018-09-21T11:02:41.920Z,2384.00
2018-09-21T11:03:42.058Z,2564.00
2018-09-21T11:04:42.265Z,2608.00
2018-09-21T11:05:42.353Z,2356.00
2018-09-21T11:06:42.494Z,2200.00
2018-09-21T11:07:42.635Z,2116.00
2018-09-21T11:08:42.807Z,2080.00
2018-09-21T11:09:42.949Z,1872.00
2018-09-21T11:10:43.089Z,1924.00
2018-09-21T11:11:43.225Z,1828.00
2018-09-21T11:12:43.381Z,1860.00
2018-09-21T11:13:43.506Z,1860.00
2018-09-21T11:14:43.651Z,2008.00
2018-09-21T11:15:43.801Z,2328.00
2018-09-21T11:16:43.936Z,2624.00
2018-09-21T11:17:44.076Z,3152.00
2018-09-21T11:18:44.224Z,3436.00
2018-09-21T11:19:44.387Z,3692.00
2018-09-21T11:20:44.523Z,4080.00
2018-09-21T11:21:44.669Z,4384.00
2018-09-21T11:22:44.817Z,4440.00
2018-09-21T11:23:44.959Z,4992.00
2018-09-21T11:24:45.096Z,5464.00
2018-09-21T11:25:45.270Z,5848.00
2018-09-21T11:26:45.418Z,6712.00
2018-09-21T11:27:45.562Z,6952.00
2018-09-21T11:28:45.700Z,6088.00
2018-09-21T11:29:45.853Z,5892.00
2018-09-21T11:30:45.996Z,5848.00
2018-09-21T11:31:46.140Z,5812.00
2018-09-21T11:32:46.279Z,5920.00
2018-09-21T11:33:46.451Z,5976.00
2018-09-21T11:34:46.591Z,6572.00
2018-09-21T11:35:46.724Z,6672.00
2018-09-21T11:36:46.860Z,4976.00
2018-09-21T11:37:47.019Z,3996.00
2018-09-21T11:38:47.149Z,2824.00
2018-09-21T11:39:47.331Z,2080.00
2018-09-21T11:40:47.452Z,1836.00
2018-09-21T11:41:47.593Z,1876.00
2018-09-21T11:42:47.744Z,1756.00
2018-09-21T11:43:47.893Z,1900.00
2018-09-21T11:44:48.034Z,2080.00
2018-09-21T11:45:48.191Z,2432.00
2018-09-21T11:46:48.381Z,2516.00
2018-09-21T11:47:48.568Z,2768.00
2018-09-21T11:48:48.638Z,2532.00
2018-09-21T11:49:48.785Z,2176.00
2018-09-21T11:50:48.926Z,1788.00
2018-09-21T11:51:49.071Z,1596.00
2018-09-21T11:52:49.218Z,1396.00
2018-09-21T11:53:49.363Z,1168.00
2018-09-21T11:54:49.516Z,1076.00
2018-09-21T11:55:49.653Z,1088.00
2018-09-21T11:56:49.836Z,1068.00
2018-09-21T11:57:49.941Z,1276.00
2018-09-21T11:58:50.095Z,1332.00
2018-09-21T11:59:50.223Z,1404.00
2018-09-21T12:00:50.363Z,1632.00
2018-09-21T12:01:50.556Z,1676.00
2018-09-21T12:02:50.646Z,1628.00
2018-09-21T12:03:50.786Z,1664.00
2018-09-21T12:04:50.977Z,1680.00
2018-09-21T12:05:51.073Z,1780.00
2018-09-21T12:06:51.214Z,1956.00
2018-09-21T12:07:51.356Z,2224.00
2018-09-21T12:08:51.514Z,2644.00
2018-09-21T12:09:51.648Z,3076.00
2018-09-21T12:10:51.787Z,3416.00
2018-09-21T12:11:51.924Z,3560.00
2018-09-21T12:12:52.054Z,4084.00
2018-09-21T12:13:52.207Z,4064.00
2018-09-21T12:14:52.359Z,3808.00
2018-09-21T12:15:52.511Z,4232.00
2018-09-21T12:16:52.668Z,4552.00
2018-09-21T12:17:52.778Z,4812.00
2018-09-21T12:18:52.969Z,4396.00
2018-09-21T12:19:53.112Z,4528.00
2018-09-21T12:20:53.249Z,7160.00
2018-09-21T12:21:53.400Z,3380.00
2018-09-21T12:22:53.536Z,3004.00
2018-09-21T12:23:53.684Z,3140.00
2018-09-21T12:24:53.830Z,3904.00
2018-09-21T12:25:53.961Z,5040.00
2018-09-21T12:26:54.101Z,3900.00
2018-09-21T12:27:54.244Z,3804.00
2018-09-21T12:28:54.386Z,2668.00
2018-09-21T12:29:54.527Z,1480.00
2018-09-21T12:30:54.677Z,1404.00
2018-09-21T12:31:54.818Z,1288.00
2018-09-21T12:32:54.955Z,1524.00
2018-09-21T12:33:55.099Z,1836.00
2018-09-21T12:34:55.237Z,1560.00
2018-09-21T12:35:55.438Z,1368.00
2018-09-21T12:36:55.530Z,1392.00
2018-09-21T12:37:55.666Z,1384.00
2018-09-21T12:38:55.802Z,1556.00